createdAt,value
2017-05-03T18:39:34.495Z,541.12
2017-05-03T18:42:02.758Z,527.02
2017-05-03T18:44:31.200Z,503.62
2017-05-03T18:46:59.439Z,486.64
2017-05-03T18:49:28.511Z,480.22
2017-05-03T18:51:57.567Z,557.70
2017-05-03T18:54:25.872Z,610.96
2017-05-03T18:56:54.854Z,589.34
2017-05-03T18:59:23.246Z,565.06
2017-05-03T19:01:52.207Z,545.24
2017-05-03T19:04:20.483Z,521.34
2017-05-03T19:06:49.578Z,579.18
2017-05-03T19:09:17.945Z,748.94
2017-05-03T19:11:46.214Z,818.84
2017-05-03T19:14:16.066Z,791.24
2017-05-03T19:21:54.424Z,644.26
2017-05-03T19:24:24.283Z,639.86
2017-05-03T19:26:52.658Z,634.52
2017-05-03T19:29:21.763Z,640.62
2017-05-03T19:31:50.063Z,631.32
2017-05-03T19:34:18.361Z,623.12
2017-05-03T19:36:47.822Z,621.28
2017-05-03T19:39:16.157Z,616.54
2017-05-03T19:41:45.235Z,616.08
2017-05-03T19:44:15.047Z,595.70
2017-05-03T19:46:44.147Z,600.34
2017-05-03T19:49:12.456Z,593.60
2017-05-03T19:51:41.868Z,579.16
2017-05-03T19:54:10.181Z,574.48
2017-05-03T19:56:39.230Z,558.68
2017-05-03T19:59:09.296Z,561.26
2017-05-03T20:01:38.472Z,546.58
2017-05-03T20:04:08.244Z,558.78
2017-05-03T20:06:37.307Z,584.64
2017-05-03T20:09:05.657Z,595.90
2017-05-03T20:11:34.768Z,612.60
2017-05-03T20:14:03.107Z,620.56
2017-05-03T20:16:31.605Z,627.46
2017-05-03T20:19:00.673Z,627.36
2017-05-03T20:21:29.095Z,632.20
2017-05-03T20:23:57.503Z,626.92
2017-05-03T20:26:25.817Z,619.16
2017-05-03T20:28:54.923Z,627.34
2017-05-03T20:31:23.241Z,623.98
2017-05-03T20:33:51.567Z,628.08
2017-05-03T20:36:19.830Z,685.52
2017-05-03T20:38:48.894Z,616.78
2017-05-03T20:41:17.647Z,546.68
2017-05-03T20:43:46.122Z,466.22
2017-05-03T20:46:14.415Z,366.40
2017-05-03T20:48:42.737Z,300.12
2017-05-03T20:51:11.805Z,226.80
2017-05-03T20:53:40.211Z,184.78
2017-05-03T20:56:08.564Z,156.38
2017-05-03T20:58:36.879Z,145.78
2017-05-03T21:01:05.218Z,131.62
2017-05-03T21:03:34.273Z,124.44
2017-05-03T21:06:05.447Z,120.44
2017-05-03T21:08:33.738Z,117.58
2017-05-03T21:11:02.127Z,110.40
2017-05-03T21:13:31.235Z,112.44
2017-05-03T21:21:04.358Z,111.06
2017-05-03T21:23:34.189Z,115.34
2017-05-03T21:26:04.195Z,136.38
2017-05-03T21:28:33.511Z,166.68
2017-05-03T21:31:02.769Z,212.10
2017-05-03T21:33:32.811Z,237.62
2017-05-03T21:36:04.221Z,244.82
2017-05-03T21:38:34.862Z,262.92
2017-05-03T21:41:04.886Z,263.06
2017-05-03T21:43:34.977Z,277.22
2017-05-03T21:46:05.061Z,296.78
2017-05-03T21:48:34.331Z,296.10
2017-05-03T21:51:04.180Z,296.20
2017-05-03T21:53:33.421Z,295.60
2017-05-03T21:56:02.690Z,293.88
2017-05-03T21:58:31.928Z,291.10
2017-05-03T22:01:02.072Z,296.46
2017-05-03T22:03:31.660Z,294.16
2017-05-03T22:24:05.534Z,257.36
2017-05-03T22:26:35.718Z,255.16
2017-05-03T22:29:05.207Z,242.42
2017-05-03T22:31:35.216Z,240.92
2017-05-03T22:34:06.074Z,237.70
2017-05-03T22:36:35.315Z,241.98
2017-05-03T22:39:04.544Z,225.70
2017-05-03T22:41:33.756Z,231.50
2017-05-03T22:44:03.737Z,223.52
2017-05-03T22:46:33.934Z,252.94
2017-05-03T22:49:03.149Z,299.76
2017-05-03T22:51:33.075Z,292.66
2017-05-03T22:54:02.360Z,281.96
2017-05-03T22:56:31.738Z,297.86
2017-05-03T22:59:01.737Z,331.86
2017-05-03T23:01:31.654Z,337.10
2017-05-03T23:04:00.921Z,341.00
2017-05-03T23:06:30.135Z,342.10
2017-05-03T23:08:59.406Z,347.80
2017-05-03T23:11:28.811Z,346.10
2017-05-03T23:13:59.337Z,355.02
2017-05-03T23:16:29.409Z,353.00
2017-05-03T23:18:58.776Z,351.20
2017-05-03T23:21:27.988Z,350.74
2017-05-03T23:23:58.068Z,351.90
2017-05-03T23:26:28.054Z,349.14
2017-05-03T23:28:57.399Z,346.76
2017-05-03T23:31:28.083Z,350.14
2017-05-03T23:33:57.565Z,348.02
2017-05-03T23:36:26.773Z,353.76
2017-05-03T23:38:56.029Z,347.84
2017-05-03T23:41:25.275Z,351.62
2017-05-03T23:43:56.065Z,345.34
2017-05-03T23:46:26.742Z,342.44
2017-05-03T23:48:56.003Z,344.16
2017-05-03T23:51:25.216Z,343.40
2017-05-03T23:53:54.574Z,348.08
2017-05-03T23:56:24.704Z,336.96
2017-05-03T23:58:53.940Z,329.56
